sensor_id;sensor_type;location;lat;lon;timestamp;temperature;humidity
27409;DHT22;20413;50.782;7.152;2022-10-31T00:00:51;11.20;99.90
27409;DHT22;20413;50.782;7.152;2022-10-31T00:03:17;11.20;99.90
27409;DHT22;20413;50.782;7.152;2022-10-31T00:05:47;11.20;99.90
27409;DHT22;20413;50.782;7.152;2022-10-31T00:08:13;11.10;99.90
27409;DHT22;20413;50.782;7.152;2022-10-31T00:10:40;11.10;99.90
27409;DHT22;20413;50.782;7.152;2022-10-31T00:13:06;11.10;99.90
27409;DHT22;20413;50.782;7.152;2022-10-31T00:15:36;11.10;99.90
27409;DHT22;20413;50.782;7.152;2022-10-31T00:18:02;11.10;99.90
27409;DHT22;20413;50.782;7.152;2022-10-31T00:20:28;11.10;99.90
27409;DHT22;20413;50.782;7.152;2022-10-31T00:22:57;11.10;99.90
27409;DHT22;20413;50.782;7.152;2022-10-31T00:25:23;11.10;99.90
27409;DHT22;20413;50.782;7.152;2022-10-31T00:27:48;11.10;99.90
27409;DHT22;20413;50.782;7.152;2022-10-31T00:30:14;11.10;99.90
27409;DHT22;20413;50.782;7.152;2022-10-31T00:32:40;11.20;99.90
27409;DHT22;20413;50.782;7.152;2022-10-31T00:35:05;11.20;99.90
27409;DHT22;20413;50.782;7.152;2022-10-31T00:37:31;11.20;99.90
27409;DHT22;20413;50.782;7.152;2022-10-31T00:39:57;11.20;99.90
27409;DHT22;20413;50.782;7.152;2022-10-31T00:42:22;11.20;99.90
27409;DHT22;20413;50.782;7.152;2022-10-31T00:44:48;11.30;99.90
27409;DHT22;20413;50.782;7.152;2022-10-31T00:47:13;11.20;99.90
27409;DHT22;20413;50.782;7.152;2022-10-31T00:49:39;11.20;99.90
27409;DHT22;20413;50.782;7.152;2022-10-31T00:52:04;11.20;99.90
27409;DHT22;20413;50.782;7.152;2022-10-31T00:54:30;11.20;99.90
27409;DHT22;20413;50.782;7.152;2022-10-31T00:56:56;11.20;99.90
27409;DHT22;20413;50.782;7.152;2022-10-31T00:59:22;11.20;99.90
27409;DHT22;20413;50.782;7.152;2022-10-31T01:01:47;11.20;99.90
27409;DHT22;20413;50.782;7.152;2022-10-31T01:04:13;11.20;99.90
27409;DHT22;20413;50.782;7.152;2022-10-31T01:06:39;11.20;99.90
27409;DHT22;20413;50.782;7.152;2022-10-31T01:09:04;11.10;99.90
27409;DHT22;20413;50.782;7.152;2022-10-31T01:11:30;11.10;99.90
27409;DHT22;20413;50.782;7.152;2022-10-31T01:13:55;11.10;99.90
27409;DHT22;20413;50.782;7.152;2022-10-31T01:16:23;11.10;99.90
27409;DHT22;20413;50.782;7.152;2022-10-31T01:18:49;11.10;99.90
27409;DHT22;20413;50.782;7.152;2022-10-31T01:21:18;11.10;99.90
27409;DHT22;20413;50.782;7.152;2022-10-31T01:23:44;11.10;99.90
27409;DHT22;20413;50.782;7.152;2022-10-31T01:26:18;11.10;99.90
27409;DHT22;20413;50.782;7.152;2022-10-31T01:28:56;11.10;99.90
27409;DHT22;20413;50.782;7.152;2022-10-31T01:31:24;11.20;99.90
27409;DHT22;20413;50.782;7.152;2022-10-31T01:33:50;11.30;99.90
27409;DHT22;20413;50.782;7.152;2022-10-31T01:36:19;11.30;99.90
27409;DHT22;20413;50.782;7.152;2022-10-31T01:38:47;11.30;99.90
27409;DHT22;20413;50.782;7.152;2022-10-31T01:41:16;11.30;99.90
27409;DHT22;20413;50.782;7.152;2022-10-31T01:43:57;11.30;99.90
27409;DHT22;20413;50.782;7.152;2022-10-31T01:46:34;11.30;99.90
27409;DHT22;20413;50.782;7.152;2022-10-31T01:49:04;11.30;99.90
27409;DHT22;20413;50.782;7.152;2022-10-31T01:51:34;11.30;99.90
27409;DHT22;20413;50.782;7.152;2022-10-31T01:54:12;11.20;99.90
27409;DHT22;20413;50.782;7.152;2022-10-31T01:56:41;11.30;99.90
27409;DHT22;20413;50.782;7.152;2022-10-31T01:59:11;11.30;99.90
27409;DHT22;20413;50.782;7.152;2022-10-31T02:01:37;11.30;99.90
27409;DHT22;20413;50.782;7.152;2022-10-31T02:04:04;11.30;99.90
27409;DHT22;20413;50.782;7.152;2022-10-31T02:06:51;11.30;99.90
27409;DHT22;20413;50.782;7.152;2022-10-31T02:09:19;11.30;99.90
27409;DHT22;20413;50.782;7.152;2022-10-31T02:11:49;11.30;99.90
27409;DHT22;20413;50.782;7.152;2022-10-31T02:14:16;11.30;99.90
27409;DHT22;20413;50.782;7.152;2022-10-31T02:16:42;11.30;99.90
27409;DHT22;20413;50.782;7.152;2022-10-31T02:19:09;11.40;99.90
27409;DHT22;20413;50.782;7.152;2022-10-31T02:27:06;11.30;99.90
27409;DHT22;20413;50.782;7.152;2022-10-31T02:29:54;11.30;99.90
27409;DHT22;20413;50.782;7.152;2022-10-31T02:35:07;11.30;99.90
27409;DHT22;20413;50.782;7.152;2022-10-31T02:40:23;11.30;99.90
27409;DHT22;20413;50.782;7.152;2022-10-31T02:48:18;11.20;99.90
27409;DHT22;20413;50.782;7.152;2022-10-31T02:50:52;11.20;99.90
27409;DHT22;20413;50.782;7.152;2022-10-31T02:53:20;11.10;99.90
27409;DHT22;20413;50.782;7.152;2022-10-31T02:55:56;11.10;99.90
27409;DHT22;20413;50.782;7.152;2022-10-31T02:58:26;11.10;99.90
27409;DHT22;20413;50.782;7.152;2022-10-31T03:01:34;11.00;99.90
27409;DHT22;20413;50.782;7.152;2022-10-31T03:04:16;11.00;99.90
27409;DHT22;20413;50.782;7.152;2022-10-31T03:09:29;10.90;99.90
27409;DHT22;20413;50.782;7.152;2022-10-31T03:17:23;10.90;99.90
27409;DHT22;20413;50.782;7.152;2022-10-31T03:19:53;10.90;99.90
27409;DHT22;20413;50.782;7.152;2022-10-31T03:22:25;10.90;99.90
27409;DHT22;20413;50.782;7.152;2022-10-31T03:24:53;10.90;99.90
27409;DHT22;20413;50.782;7.152;2022-10-31T03:27:24;10.90;99.90
27409;DHT22;20413;50.782;7.152;2022-10-31T03:29:54;10.90;99.90
27409;DHT22;20413;50.782;7.152;2022-10-31T03:32:42;10.90;99.90
27409;DHT22;20413;50.782;7.152;2022-10-31T03:35:09;10.90;99.90
27409;DHT22;20413;50.782;7.152;2022-10-31T03:37:37;10.90;99.90
27409;DHT22;20413;50.782;7.152;2022-10-31T03:40:04;10.80;99.90
27409;DHT22;20413;50.782;7.152;2022-10-31T03:42:33;10.80;99.90
27409;DHT22;20413;50.782;7.152;2022-10-31T03:47:29;10.80;99.90
27409;DHT22;20413;50.782;7.152;2022-10-31T03:49:54;10.80;99.90
27409;DHT22;20413;50.782;7.152;2022-10-31T03:52:25;10.80;99.90
27409;DHT22;20413;50.782;7.152;2022-10-31T03:54:58;10.80;99.90
27409;DHT22;20413;50.782;7.152;2022-10-31T03:57:39;10.90;99.90
27409;DHT22;20413;50.782;7.152;2022-10-31T04:00:09;10.90;99.90
27409;DHT22;20413;50.782;7.152;2022-10-31T04:02:40;10.80;99.90
27409;DHT22;20413;50.782;7.152;2022-10-31T04:05:07;10.80;99.90
27409;DHT22;20413;50.782;7.152;2022-10-31T04:07:37;10.80;99.90
27409;DHT22;20413;50.782;7.152;2022-10-31T04:10:07;10.80;99.90
27409;DHT22;20413;50.782;7.152;2022-10-31T04:12:34;10.80;99.90
27409;DHT22;20413;50.782;7.152;2022-10-31T04:15:03;10.80;99.90
27409;DHT22;20413;50.782;7.152;2022-10-31T04:17:33;10.70;99.90
27409;DHT22;20413;50.782;7.152;2022-10-31T04:20:00;10.70;99.90
27409;DHT22;20413;50.782;7.152;2022-10-31T04:22:26;10.70;99.90
27409;DHT22;20413;50.782;7.152;2022-10-31T04:24:51;10.70;99.90
27409;DHT22;20413;50.782;7.152;2022-10-31T04:27:17;10.70;99.90
27409;DHT22;20413;50.782;7.152;2022-10-31T04:29:42;10.70;99.90
27409;DHT22;20413;50.782;7.152;2022-10-31T04:32:08;10.70;99.90
27409;DHT22;20413;50.782;7.152;2022-10-31T04:34:33;10.60;99.90
27409;DHT22;20413;50.782;7.152;2022-10-31T04:36:59;10.60;99.90
27409;DHT22;20413;50.782;7.152;2022-10-31T04:39:24;10.60;99.90
27409;DHT22;20413;50.782;7.152;2022-10-31T04:41:50;10.50;99.90
27409;DHT22;20413;50.782;7.152;2022-10-31T04:44:16;10.60;99.90
27409;DHT22;20413;50.782;7.152;2022-10-31T04:46:41;10.50;99.90
27409;DHT22;20413;50.782;7.152;2022-10-31T04:49:07;10.50;99.90
27409;DHT22;20413;50.782;7.152;2022-10-31T04:51:32;10.50;99.90
27409;DHT22;20413;50.782;7.152;2022-10-31T04:53:58;10.60;99.90
27409;DHT22;20413;50.782;7.152;2022-10-31T04:56:24;10.60;99.90
27409;DHT22;20413;50.782;7.152;2022-10-31T04:58:49;10.60;99.90
27409;DHT22;20413;50.782;7.152;2022-10-31T05:01:15;10.50;99.90
27409;DHT22;20413;50.782;7.152;2022-10-31T05:03:40;10.50;99.90
27409;DHT22;20413;50.782;7.152;2022-10-31T05:06:06;10.50;99.90
27409;DHT22;20413;50.782;7.152;2022-10-31T05:08:32;10.50;99.90
27409;DHT22;20413;50.782;7.152;2022-10-31T05:11:02;10.60;99.90
27409;DHT22;20413;50.782;7.152;2022-10-31T05:13:28;10.70;99.90
27409;DHT22;20413;50.782;7.152;2022-10-31T05:15:54;10.70;99.90
27409;DHT22;20413;50.782;7.152;2022-10-31T05:18:19;10.60;99.90
27409;DHT22;20413;50.782;7.152;2022-10-31T05:20:45;10.60;99.90
27409;DHT22;20413;50.782;7.152;2022-10-31T05:23:11;10.60;99.90
27409;DHT22;20413;50.782;7.152;2022-10-31T05:25:36;10.50;99.90
27409;DHT22;20413;50.782;7.152;2022-10-31T05:28:02;10.50;99.90
27409;DHT22;20413;50.782;7.152;2022-10-31T05:30:30;10.50;99.90
27409;DHT22;20413;50.782;7.152;2022-10-31T05:32:57;10.50;99.90
27409;DHT22;20413;50.782;7.152;2022-10-31T05:35:27;10.40;99.90
27409;DHT22;20413;50.782;7.152;2022-10-31T05:37:53;10.40;99.90
27409;DHT22;20413;50.782;7.152;2022-10-31T05:40:19;10.40;99.90
27409;DHT22;20413;50.782;7.152;2022-10-31T05:42:46;10.40;99.90
27409;DHT22;20413;50.782;7.152;2022-10-31T05:45:15;10.40;99.90
27409;DHT22;20413;50.782;7.152;2022-10-31T05:47:41;10.40;99.90
27409;DHT22;20413;50.782;7.152;2022-10-31T05:50:10;10.40;99.90
27409;DHT22;20413;50.782;7.152;2022-10-31T05:52:35;10.30;99.90
27409;DHT22;20413;50.782;7.152;2022-10-31T05:55:01;10.30;99.90
27409;DHT22;20413;50.782;7.152;2022-10-31T05:57:28;10.20;99.90
27409;DHT22;20413;50.782;7.152;2022-10-31T05:59:54;10.20;99.90
27409;DHT22;20413;50.782;7.152;2022-10-31T06:02:20;10.10;99.90
27409;DHT22;20413;50.782;7.152;2022-10-31T06:04:46;10.10;99.90
27409;DHT22;20413;50.782;7.152;2022-10-31T06:07:12;10.10;99.90
27409;DHT22;20413;50.782;7.152;2022-10-31T06:09:38;10.10;99.90
27409;DHT22;20413;50.782;7.152;2022-10-31T06:12:03;10.10;99.90
27409;DHT22;20413;50.782;7.152;2022-10-31T06:14:29;10.10;99.90
27409;DHT22;20413;50.782;7.152;2022-10-31T06:16:55;10.00;99.90
27409;DHT22;20413;50.782;7.152;2022-10-31T06:19:21;10.10;99.90
27409;DHT22;20413;50.782;7.152;2022-10-31T06:21:46;10.10;99.90
27409;DHT22;20413;50.782;7.152;2022-10-31T06:24:12;10.20;99.90
27409;DHT22;20413;50.782;7.152;2022-10-31T06:26:38;10.20;99.90
27409;DHT22;20413;50.782;7.152;2022-10-31T06:29:03;10.20;99.90
27409;DHT22;20413;50.782;7.152;2022-10-31T06:31:29;10.30;99.90
27409;DHT22;20413;50.782;7.152;2022-10-31T06:33:55;10.30;99.90
27409;DHT22;20413;50.782;7.152;2022-10-31T06:36:20;10.20;99.90
27409;DHT22;20413;50.782;7.152;2022-10-31T06:38:46;10.30;99.90
27409;DHT22;20413;50.782;7.152;2022-10-31T06:41:11;10.30;99.90
27409;DHT22;20413;50.782;7.152;2022-10-31T06:43:37;10.30;99.90
27409;DHT22;20413;50.782;7.152;2022-10-31T06:46:03;10.30;99.90
27409;DHT22;20413;50.782;7.152;2022-10-31T06:48:29;10.40;99.90
27409;DHT22;20413;50.782;7.152;2022-10-31T06:50:58;10.40;99.90
27409;DHT22;20413;50.782;7.152;2022-10-31T06:53:24;10.40;99.90
27409;DHT22;20413;50.782;7.152;2022-10-31T06:55:50;10.50;99.90
27409;DHT22;20413;50.782;7.152;2022-10-31T06:58:15;10.50;99.90
27409;DHT22;20413;50.782;7.152;2022-10-31T07:00:41;10.60;99.90
27409;DHT22;20413;50.782;7.152;2022-10-31T07:03:10;10.70;99.90
27409;DHT22;20413;50.782;7.152;2022-10-31T07:05:36;10.80;99.90
27409;DHT22;20413;50.782;7.152;2022-10-31T07:08:04;11.00;99.90
27409;DHT22;20413;50.782;7.152;2022-10-31T07:10:33;11.00;99.90
27409;DHT22;20413;50.782;7.152;2022-10-31T07:13:03;11.10;99.90
27409;DHT22;20413;50.782;7.152;2022-10-31T07:15:33;11.30;99.90
27409;DHT22;20413;50.782;7.152;2022-10-31T07:18:03;11.40;99.90
27409;DHT22;20413;50.782;7.152;2022-10-31T07:20:30;11.40;99.90
27409;DHT22;20413;50.782;7.152;2022-10-31T07:22:56;11.40;99.90
27409;DHT22;20413;50.782;7.152;2022-10-31T07:25:22;11.40;99.90
27409;DHT22;20413;50.782;7.152;2022-10-31T07:27:48;11.40;99.90
27409;DHT22;20413;50.782;7.152;2022-10-31T07:30:14;11.50;99.90
27409;DHT22;20413;50.782;7.152;2022-10-31T07:32:41;11.50;99.90
27409;DHT22;20413;50.782;7.152;2022-10-31T07:35:08;11.60;99.90
27409;DHT22;20413;50.782;7.152;2022-10-31T07:37:34;11.70;99.90
27409;DHT22;20413;50.782;7.152;2022-10-31T07:40:00;11.70;99.90
27409;DHT22;20413;50.782;7.152;2022-10-31T07:42:26;11.70;99.90
27409;DHT22;20413;50.782;7.152;2022-10-31T07:44:51;11.90;99.90
27409;DHT22;20413;50.782;7.152;2022-10-31T07:47:17;11.90;99.90
27409;DHT22;20413;50.782;7.152;2022-10-31T07:49:42;12.10;99.90
27409;DHT22;20413;50.782;7.152;2022-10-31T07:52:08;12.10;99.90
27409;DHT22;20413;50.782;7.152;2022-10-31T07:54:33;12.20;99.90
27409;DHT22;20413;50.782;7.152;2022-10-31T07:56:59;12.30;99.90
27409;DHT22;20413;50.782;7.152;2022-10-31T07:59:24;12.40;99.90
27409;DHT22;20413;50.782;7.152;2022-10-31T08:01:51;12.50;99.90
27409;DHT22;20413;50.782;7.152;2022-10-31T08:04:16;12.50;99.90
27409;DHT22;20413;50.782;7.152;2022-10-31T08:06:42;12.50;99.90
27409;DHT22;20413;50.782;7.152;2022-10-31T08:09:07;12.60;99.90
27409;DHT22;20413;50.782;7.152;2022-10-31T08:11:33;12.70;99.90
27409;DHT22;20413;50.782;7.152;2022-10-31T08:13:58;12.80;99.90
27409;DHT22;20413;50.782;7.152;2022-10-31T08:16:24;12.90;99.90
27409;DHT22;20413;50.782;7.152;2022-10-31T08:18:50;13.00;99.90
27409;DHT22;20413;50.782;7.152;2022-10-31T08:21:15;13.00;99.90
27409;DHT22;20413;50.782;7.152;2022-10-31T08:23:41;13.00;99.90
27409;DHT22;20413;50.782;7.152;2022-10-31T08:26:06;13.10;99.90
27409;DHT22;20413;50.782;7.152;2022-10-31T08:28:32;13.10;99.90
27409;DHT22;20413;50.782;7.152;2022-10-31T08:30:58;13.10;99.90
27409;DHT22;20413;50.782;7.152;2022-10-31T08:33:24;13.20;99.90
27409;DHT22;20413;50.782;7.152;2022-10-31T08:35:50;13.30;99.90
27409;DHT22;20413;50.782;7.152;2022-10-31T08:38:16;13.40;99.90
27409;DHT22;20413;50.782;7.152;2022-10-31T08:40:41;13.50;99.90
27409;DHT22;20413;50.782;7.152;2022-10-31T08:43:15;13.60;99.90
27409;DHT22;20413;50.782;7.152;2022-10-31T08:45:42;13.60;99.90
27409;DHT22;20413;50.782;7.152;2022-10-31T08:48:13;13.60;99.90
27409;DHT22;20413;50.782;7.152;2022-10-31T08:50:39;13.70;99.90
27409;DHT22;20413;50.782;7.152;2022-10-31T08:53:10;13.80;99.90
27409;DHT22;20413;50.782;7.152;2022-10-31T08:55:37;13.80;99.90
27409;DHT22;20413;50.782;7.152;2022-10-31T08:58:10;13.80;99.90
27409;DHT22;20413;50.782;7.152;2022-10-31T09:00:36;14.00;99.90
27409;DHT22;20413;50.782;7.152;2022-10-31T09:03:05;14.00;99.90
27409;DHT22;20413;50.782;7.152;2022-10-31T09:05:31;13.90;99.90
27409;DHT22;20413;50.782;7.152;2022-10-31T09:07:58;14.00;99.90
27409;DHT22;20413;50.782;7.152;2022-10-31T09:10:25;14.00;99.90
27409;DHT22;20413;50.782;7.152;2022-10-31T09:13:09;14.10;99.90
27409;DHT22;20413;50.782;7.152;2022-10-31T09:15:37;14.10;99.90
27409;DHT22;20413;50.782;7.152;2022-10-31T09:18:07;14.30;99.90
27409;DHT22;20413;50.782;7.152;2022-10-31T09:20:34;14.30;99.90
27409;DHT22;20413;50.782;7.152;2022-10-31T09:23:02;14.50;99.90
27409;DHT22;20413;50.782;7.152;2022-10-31T09:25:28;14.60;99.90
27409;DHT22;20413;50.782;7.152;2022-10-31T09:27:58;14.80;99.90
27409;DHT22;20413;50.782;7.152;2022-10-31T09:30:26;14.80;99.90
27409;DHT22;20413;50.782;7.152;2022-10-31T09:32:59;15.00;99.90
27409;DHT22;20413;50.782;7.152;2022-10-31T09:35:26;15.20;99.90
27409;DHT22;20413;50.782;7.152;2022-10-31T09:38:02;15.30;99.90
27409;DHT22;20413;50.782;7.152;2022-10-31T09:40:36;15.50;99.90
27409;DHT22;20413;50.782;7.152;2022-10-31T09:43:13;15.50;99.90
27409;DHT22;20413;50.782;7.152;2022-10-31T09:50:58;15.70;99.90
27409;DHT22;20413;50.782;7.152;2022-10-31T09:53:35;15.70;99.90
27409;DHT22;20413;50.782;7.152;2022-10-31T09:56:07;15.80;99.90
27409;DHT22;20413;50.782;7.152;2022-10-31T09:58:36;15.90;99.90
27409;DHT22;20413;50.782;7.152;2022-10-31T10:01:04;15.90;99.90
27409;DHT22;20413;50.782;7.152;2022-10-31T10:03:35;15.80;99.90
27409;DHT22;20413;50.782;7.152;2022-10-31T10:06:12;15.80;99.90
27409;DHT22;20413;50.782;7.152;2022-10-31T10:08:39;15.80;99.90
27409;DHT22;20413;50.782;7.152;2022-10-31T10:14:04;15.80;99.90
27409;DHT22;20413;50.782;7.152;2022-10-31T10:16:51;15.90;99.90
27409;DHT22;20413;50.782;7.152;2022-10-31T10:22:27;16.00;99.90
27409;DHT22;20413;50.782;7.152;2022-10-31T10:25:22;16.00;99.90
27409;DHT22;20413;50.782;7.152;2022-10-31T10:30:20;16.20;99.90
27409;DHT22;20413;50.782;7.152;2022-10-31T10:32:51;16.40;99.90
27409;DHT22;20413;50.782;7.152;2022-10-31T10:35:22;16.50;99.90
27409;DHT22;20413;50.782;7.152;2022-10-31T10:37:52;16.60;99.90
27409;DHT22;20413;50.782;7.152;2022-10-31T10:40:21;16.70;99.90
27409;DHT22;20413;50.782;7.152;2022-10-31T10:43:15;16.80;99.90
27409;DHT22;20413;50.782;7.152;2022-10-31T10:46:11;16.90;99.90
27409;DHT22;20413;50.782;7.152;2022-10-31T10:51:44;17.10;99.90
27409;DHT22;20413;50.782;7.152;2022-10-31T10:57:07;17.60;99.90
27409;DHT22;20413;50.782;7.152;2022-10-31T10:59:35;17.60;99.90
27409;DHT22;20413;50.782;7.152;2022-10-31T11:02:01;17.70;99.90
27409;DHT22;20413;50.782;7.152;2022-10-31T11:04:34;17.80;99.90
27409;DHT22;20413;50.782;7.152;2022-10-31T11:07:06;17.80;99.90
27409;DHT22;20413;50.782;7.152;2022-10-31T11:09:33;17.90;99.90
27409;DHT22;20413;50.782;7.152;2022-10-31T11:12:00;18.10;99.90
27409;DHT22;20413;50.782;7.152;2022-10-31T11:14:31;18.10;99.90
27409;DHT22;20413;50.782;7.152;2022-10-31T11:17:17;18.10;99.90
27409;DHT22;20413;50.782;7.152;2022-10-31T11:19:44;18.10;99.90
27409;DHT22;20413;50.782;7.152;2022-10-31T11:22:17;18.10;99.90
27409;DHT22;20413;50.782;7.152;2022-10-31T11:24:43;18.20;99.90
27409;DHT22;20413;50.782;7.152;2022-10-31T11:27:23;18.20;99.90
27409;DHT22;20413;50.782;7.152;2022-10-31T11:29:49;18.20;99.90
27409;DHT22;20413;50.782;7.152;2022-10-31T11:32:22;18.20;99.90
27409;DHT22;20413;50.782;7.152;2022-10-31T11:34:51;18.30;99.90
27409;DHT22;20413;50.782;7.152;2022-10-31T11:37:26;18.30;99.90
27409;DHT22;20413;50.782;7.152;2022-10-31T11:39:55;18.40;99.90
27409;DHT22;20413;50.782;7.152;2022-10-31T11:42:27;18.50;99.90
27409;DHT22;20413;50.782;7.152;2022-10-31T11:44:55;18.50;99.90
27409;DHT22;20413;50.782;7.152;2022-10-31T11:47:27;18.60;99.90
27409;DHT22;20413;50.782;7.152;2022-10-31T11:49:54;18.60;99.90
27409;DHT22;20413;50.782;7.152;2022-10-31T11:52:24;18.70;99.90
27409;DHT22;20413;50.782;7.152;2022-10-31T11:57:28;18.90;99.90
27409;DHT22;20413;50.782;7.152;2022-10-31T11:59:57;18.90;99.90
27409;DHT22;20413;50.782;7.152;2022-10-31T12:02:23;18.90;99.90
27409;DHT22;20413;50.782;7.152;2022-10-31T12:05:06;19.00;99.90
27409;DHT22;20413;50.782;7.152;2022-10-31T12:07:33;19.10;99.90
27409;DHT22;20413;50.782;7.152;2022-10-31T12:09:59;19.30;99.90
27409;DHT22;20413;50.782;7.152;2022-10-31T12:15:30;19.30;99.90
27409;DHT22;20413;50.782;7.152;2022-10-31T12:23:44;19.40;99.90
27409;DHT22;20413;50.782;7.152;2022-10-31T12:26:22;19.50;99.90
27409;DHT22;20413;50.782;7.152;2022-10-31T12:37:41;19.70;99.90
27409;DHT22;20413;50.782;7.152;2022-10-31T12:45:57;19.70;99.90
27409;DHT22;20413;50.782;7.152;2022-10-31T13:01:45;19.40;99.90
27409;DHT22;20413;50.782;7.152;2022-10-31T13:04:44;19.20;99.90
27409;DHT22;20413;50.782;7.152;2022-10-31T13:07:21;19.20;99.90
27409;DHT22;20413;50.782;7.152;2022-10-31T13:12:41;19.10;99.90
27409;DHT22;20413;50.782;7.152;2022-10-31T13:15:23;19.10;99.90
27409;DHT22;20413;50.782;7.152;2022-10-31T13:18:15;19.10;99.90
27409;DHT22;20413;50.782;7.152;2022-10-31T13:20:45;19.00;99.90
27409;DHT22;20413;50.782;7.152;2022-10-31T13:23:24;19.10;99.90
27409;DHT22;20413;50.782;7.152;2022-10-31T13:25:54;19.00;99.90
27409;DHT22;20413;50.782;7.152;2022-10-31T13:30:51;19.10;99.90
27409;DHT22;20413;50.782;7.152;2022-10-31T13:33:29;19.30;99.90
27409;DHT22;20413;50.782;7.152;2022-10-31T13:36:00;19.50;99.90
27409;DHT22;20413;50.782;7.152;2022-10-31T13:44:09;19.40;99.90
27409;DHT22;20413;50.782;7.152;2022-10-31T13:46:39;19.30;99.90
27409;DHT22;20413;50.782;7.152;2022-10-31T13:54:38;19.10;99.90
27409;DHT22;20413;50.782;7.152;2022-10-31T13:59:57;18.90;99.90
27409;DHT22;20413;50.782;7.152;2022-10-31T14:02:32;18.80;99.90
27409;DHT22;20413;50.782;7.152;2022-10-31T14:05:17;18.70;99.90
27409;DHT22;20413;50.782;7.152;2022-10-31T14:07:45;18.70;99.90
27409;DHT22;20413;50.782;7.152;2022-10-31T14:12:50;18.70;99.90
27409;DHT22;20413;50.782;7.152;2022-10-31T14:15:20;18.70;99.90
27409;DHT22;20413;50.782;7.152;2022-10-31T14:22:44;18.60;99.90
27409;DHT22;20413;50.782;7.152;2022-10-31T14:25:38;18.60;99.90
27409;DHT22;20413;50.782;7.152;2022-10-31T14:28:30;18.60;99.90
27409;DHT22;20413;50.782;7.152;2022-10-31T14:30:58;18.60;99.90
27409;DHT22;20413;50.782;7.152;2022-10-31T14:33:29;18.60;99.90
27409;DHT22;20413;50.782;7.152;2022-10-31T14:38:30;18.60;99.90
27409;DHT22;20413;50.782;7.152;2022-10-31T14:44:24;18.60;99.90
27409;DHT22;20413;50.782;7.152;2022-10-31T14:52:30;18.60;99.90
27409;DHT22;20413;50.782;7.152;2022-10-31T14:54:59;18.50;99.90
27409;DHT22;20413;50.782;7.152;2022-10-31T14:57:30;18.50;99.90
27409;DHT22;20413;50.782;7.152;2022-10-31T15:00:06;18.50;99.90
27409;DHT22;20413;50.782;7.152;2022-10-31T15:05:21;18.60;99.90
27409;DHT22;20413;50.782;7.152;2022-10-31T15:07:55;18.50;99.90
27409;DHT22;20413;50.782;7.152;2022-10-31T15:10:27;18.60;99.90
27409;DHT22;20413;50.782;7.152;2022-10-31T15:12:55;18.50;99.90
27409;DHT22;20413;50.782;7.152;2022-10-31T15:15:25;18.50;99.90
27409;DHT22;20413;50.782;7.152;2022-10-31T15:17:58;18.50;99.90
27409;DHT22;20413;50.782;7.152;2022-10-31T15:20:27;18.60;99.90
27409;DHT22;20413;50.782;7.152;2022-10-31T15:22:56;18.60;99.90
27409;DHT22;20413;50.782;7.152;2022-10-31T15:25:24;18.60;99.90
27409;DHT22;20413;50.782;7.152;2022-10-31T15:27:51;18.60;99.90
27409;DHT22;20413;50.782;7.152;2022-10-31T15:30:25;18.60;99.90
27409;DHT22;20413;50.782;7.152;2022-10-31T15:32:51;18.70;99.90
27409;DHT22;20413;50.782;7.152;2022-10-31T15:35:29;18.90;99.90
27409;DHT22;20413;50.782;7.152;2022-10-31T15:37:56;19.10;99.90
27409;DHT22;20413;50.782;7.152;2022-10-31T15:40:24;19.00;99.90
27409;DHT22;20413;50.782;7.152;2022-10-31T15:42:56;18.90;99.90
27409;DHT22;20413;50.782;7.152;2022-10-31T15:45:25;18.80;99.90
27409;DHT22;20413;50.782;7.152;2022-10-31T15:48:00;18.60;99.90
27409;DHT22;20413;50.782;7.152;2022-10-31T15:50:37;18.40;99.90
27409;DHT22;20413;50.782;7.152;2022-10-31T15:53:04;18.30;99.90
27409;DHT22;20413;50.782;7.152;2022-10-31T15:55:35;18.10;99.90
27409;DHT22;20413;50.782;7.152;2022-10-31T15:58:11;18.00;99.90
27409;DHT22;20413;50.782;7.152;2022-10-31T16:00:38;17.90;99.90
27409;DHT22;20413;50.782;7.152;2022-10-31T16:05:37;17.60;99.90
27409;DHT22;20413;50.782;7.152;2022-10-31T16:08:03;17.50;99.90
27409;DHT22;20413;50.782;7.152;2022-10-31T16:10:33;17.40;99.90
27409;DHT22;20413;50.782;7.152;2022-10-31T16:13:01;17.30;99.90
27409;DHT22;20413;50.782;7.152;2022-10-31T16:15:27;17.20;99.90
27409;DHT22;20413;50.782;7.152;2022-10-31T16:17:55;17.10;99.90
27409;DHT22;20413;50.782;7.152;2022-10-31T16:20:28;17.00;99.90
27409;DHT22;20413;50.782;7.152;2022-10-31T16:22:55;17.00;99.90
27409;DHT22;20413;50.782;7.152;2022-10-31T16:25:26;16.90;99.90
27409;DHT22;20413;50.782;7.152;2022-10-31T16:27:53;16.90;99.90
27409;DHT22;20413;50.782;7.152;2022-10-31T16:30:39;16.90;99.90
27409;DHT22;20413;50.782;7.152;2022-10-31T16:33:26;16.90;99.90
27409;DHT22;20413;50.782;7.152;2022-10-31T16:35:53;16.90;99.90
27409;DHT22;20413;50.782;7.152;2022-10-31T16:38:18;16.90;99.90
27409;DHT22;20413;50.782;7.152;2022-10-31T16:40:44;17.00;99.90
27409;DHT22;20413;50.782;7.152;2022-10-31T16:43:12;17.10;99.90
27409;DHT22;20413;50.782;7.152;2022-10-31T16:45:43;17.10;99.90
